Aviation Digital Data Service (ADDS)

Output produced by TAFs form (1503 UTC 23 October 2017)
found at http://www.aviationweather.gov/adds/tafs/
 
KBNA 231453Z 27009KT 10SM BKN010 BKN015 OVC022 14/13 A2987 RMK AO2 SLP110 BCFG 60001 T01440128 53004
KBNA 231428Z 2314/2412 25008KT 6SM BR VCSH BKN006 OVC015 
     FM231600 27011G20KT P6SM VCSH BKN015 OVC025 
     FM232200 27008KT P6SM BKN090